»·PEaware :: N416JK KSBA-KPTV

N416JK :: KSBA-KPTV

FLIGHT INFORMATION

Flight Status: Arrived
Operator: Privately registered:
United States
More flights under this callsign
Pilot: John K. (4202)
Aircraft: Unknown
(RV10)
More flights by this aircraft type
Origin: KSBA Santa Barbara Mun
United States
Destination: KPTV Porterville Mun
United States
More flights between these airports :: More routes between these airports
Route: RZS V183 EHF V165 TTE
File this flight plan on PilotEdge
Remarks:
Altitude:
(Current/Filed)
9,000ft
Speed:
(Current/Filed)
160kts
Departed: 30-Jul-20 09:23 AM
Arrived: 30-Jul-20 10:19 AM
Distance/Time
Traveled:
104nm/0:56
Distance/Time
To Go:
Arrived

Flight Plot

Page will automatically refresh every two minutes.


Map Options




Map Legend


Flown Route
Filed Route
Departure Airport
Arrival Airport
Navaid (VOR, NDB)
Fix

Horizontal Profiles

Position Reports

Time Latitude Longitude Heading Altitude Ground
Speed
30-Jul-20 09:11 34.432440 -119.835535 70 17ft 0kts
30-Jul-20 09:12 34.432440 -119.835535 70 17ft 0kts
30-Jul-20 09:13 34.432440 -119.835535 70 17ft 0kts
30-Jul-20 09:14 34.432440 -119.835535 70 17ft 0kts
30-Jul-20 09:15 34.432440 -119.835535 70 17ft 0kts
30-Jul-20 09:16 34.432440 -119.835535 70 17ft 0kts
30-Jul-20 09:17 34.432440 -119.835535 70 17ft 0kts
30-Jul-20 09:18 34.432440 -119.835535 70 17ft 0kts
30-Jul-20 09:19 34.432078 -119.835385 216 17ft 8kts
30-Jul-20 09:20 34.430782 -119.839569 245 16ft 0kts
30-Jul-20 09:21 34.430782 -119.839569 245 16ft 0kts
30-Jul-20 09:22 34.420088 -119.836949 162 204ft 117kts
30-Jul-20 09:23 34.383076 -119.821845 161 566ft 163kts
30-Jul-20 09:25 34.344677 -119.805367 161 1284ft 131kts
30-Jul-20 09:26 34.311416 -119.790894 161 1908ft 123kts
30-Jul-20 09:27 34.280729 -119.776183 132 2593ft 116kts
30-Jul-20 09:28 34.278386 -119.737114 93 3283ft 117kts
30-Jul-20 09:29 34.279936 -119.696679 93 4009ft 122kts
30-Jul-20 09:30 34.281643 -119.653447 93 4757ft 128kts
30-Jul-20 09:31 34.285719 -119.611105 49 5548ft 134kts
30-Jul-20 09:32 34.317177 -119.623268 315 6345ft 124kts
30-Jul-20 09:33 34.346205 -119.647858 321 6962ft 137kts
30-Jul-20 09:34 34.381716 -119.674768 322 7069ft 153kts
30-Jul-20 09:35 34.419366 -119.703132 322 7046ft 161kts
30-Jul-20 09:36 34.456265 -119.730831 322 7404ft 146kts
30-Jul-20 09:37 34.488812 -119.755402 323 8083ft 132kts
30-Jul-20 09:38 34.522919 -119.760921 28 8793ft 144kts
30-Jul-20 09:39 34.561542 -119.735314 28 9042ft 172kts
30-Jul-20 09:40 34.605017 -119.705803 29 9027ft 185kts
30-Jul-20 09:41 34.649742 -119.675243 29 9027ft 184kts
30-Jul-20 09:42 34.694655 -119.644495 29 9026ft 183kts
30-Jul-20 09:42 34.731865 -119.618990 29 9025ft 182kts
30-Jul-20 09:43 34.775790 -119.588872 29 9027ft 177kts
30-Jul-20 09:44 34.818223 -119.559697 29 9025ft 174kts
30-Jul-20 09:46 34.867944 -119.525486 29 9025ft 175kts
30-Jul-20 09:46 34.903216 -119.501194 29 9025ft 174kts
30-Jul-20 09:47 34.945625 -119.471952 29 9024ft 174kts
30-Jul-20 09:49 34.994901 -119.437932 29 9024ft 174kts
30-Jul-20 09:49 35.030141 -119.413573 29 9024ft 174kts
30-Jul-20 09:50 35.072347 -119.384366 29 9023ft 174kts
30-Jul-20 09:51 35.111823 -119.357018 29 9022ft 174kts
30-Jul-20 09:52 35.146486 -119.332973 30 9021ft 174kts
30-Jul-20 09:53 35.188525 -119.303798 29 9021ft 174kts
30-Jul-20 09:54 35.230664 -119.274535 29 9021ft 174kts
30-Jul-20 09:55 35.273202 -119.244977 30 9023ft 172kts
30-Jul-20 09:56 35.314927 -119.215901 29 9022ft 171kts
30-Jul-20 09:57 35.356044 -119.187232 29 9020ft 168kts
30-Jul-20 09:58 35.396341 -119.159067 29 9019ft 166kts
30-Jul-20 09:59 35.438685 -119.129427 29 8361ft 181kts
30-Jul-20 10:00 35.482614 -119.099096 16 7404ft 180kts
30-Jul-20 10:01 35.531692 -119.089083 6 6461ft 178kts
30-Jul-20 10:02 35.580734 -119.080225 6 5491ft 171kts
30-Jul-20 10:03 35.624273 -119.072464 6 5023ft 140kts
30-Jul-20 10:04 35.661638 -119.065845 6 5020ft 136kts
30-Jul-20 10:05 35.699430 -119.059083 6 5018ft 137kts
30-Jul-20 10:06 35.737408 -119.052279 6 5025ft 137kts
30-Jul-20 10:07 35.775275 -119.045527 7 5027ft 137kts
30-Jul-20 10:08 35.813217 -119.045212 342 5005ft 138kts
30-Jul-20 10:09 35.851119 -119.052182 354 4517ft 137kts
30-Jul-20 10:10 35.889761 -119.055439 351 3757ft 139kts
30-Jul-20 10:11 35.927517 -119.059117 353 3283ft 134kts
30-Jul-20 10:12 35.965633 -119.060937 357 2769ft 139kts
30-Jul-20 10:13 36.002413 -119.062724 354 1949ft 125kts
30-Jul-20 10:14 36.034349 -119.061837 6 1946ft 86kts
30-Jul-20 10:15 36.055671 -119.064555 311 1283ft 78kts
30-Jul-20 10:16 36.049117 -119.079827 204 1043ft 52kts
30-Jul-20 10:17 36.034786 -119.068817 136 447ft 58kts
30-Jul-20 10:18 36.032016 -119.061987 33 443ft 11kts
30-Jul-20 10:19 36.032063 -119.061903 150 443ft 0kts
30-Jul-20 10:20 36.031993 -119.061906 194 443ft 0kts
30-Jul-20 10:21 36.031962 -119.061924 211 443ft 0kts
30-Jul-20 10:22 36.031962 -119.061924 211 443ft 0kts
30-Jul-20 10:23 36.031962 -119.061924 211 443ft 0kts
30-Jul-20 10:24 36.031674 -119.062272 228 444ft 0kts
30-Jul-20 10:25 36.031674 -119.062272 228 444ft 0kts
30-Jul-20 10:26 36.031673 -119.062274 228 444ft 1kts
30-Jul-20 10:27 36.031576 -119.062443 238 443ft 0kts
30-Jul-20 10:28 36.031576 -119.062443 238 443ft 0kts

Navigation Log

Ident Type
Flight plan parsing failed, navigation log unavailable